sensor_id;sensor_type;location;lat;lon;timestamp;pressure;altitude;pressure_sealevel;temperature;humidity
29433;BME280;16405;53.964;13.448;2023-11-19T00:01:57;101126.22;;;2.45;100.00
29433;BME280;16405;53.964;13.448;2023-11-19T00:04:43;101116.69;;;2.47;100.00
29433;BME280;16405;53.964;13.448;2023-11-19T00:07:52;101114.13;;;2.44;100.00
29433;BME280;16405;53.964;13.448;2023-11-19T00:10:18;101117.56;;;2.43;100.00
29433;BME280;16405;53.964;13.448;2023-11-19T00:15:36;101095.94;;;2.43;100.00
29433;BME280;16405;53.964;13.448;2023-11-19T00:20:57;101082.84;;;2.52;100.00
29433;BME280;16405;53.964;13.448;2023-11-19T00:23:32;101072.50;;;2.49;100.00
29433;BME280;16405;53.964;13.448;2023-11-19T00:26:52;101046.50;;;2.51;100.00
29433;BME280;16405;53.964;13.448;2023-11-19T00:29:16;101041.34;;;2.43;100.00
29433;BME280;16405;53.964;13.448;2023-11-19T00:31:50;101046.50;;;2.49;100.00
29433;BME280;16405;53.964;13.448;2023-11-19T00:34:16;101039.53;;;2.53;100.00
29433;BME280;16405;53.964;13.448;2023-11-19T00:36:42;101036.06;;;2.52;100.00
29433;BME280;16405;53.964;13.448;2023-11-19T00:39:16;101031.75;;;2.50;100.00
29433;BME280;16405;53.964;13.448;2023-11-19T00:41:46;101025.66;;;2.54;100.00
29433;BME280;16405;53.964;13.448;2023-11-19T00:44:12;101019.56;;;2.58;100.00
29433;BME280;16405;53.964;13.448;2023-11-19T00:47:03;101020.41;;;2.61;100.00
29433;BME280;16405;53.964;13.448;2023-11-19T00:49:31;101018.66;;;2.59;100.00
29433;BME280;16405;53.964;13.448;2023-11-19T00:52:06;101008.28;;;2.59;100.00
29433;BME280;16405;53.964;13.448;2023-11-19T00:54:32;101003.09;;;2.57;100.00
29433;BME280;16405;53.964;13.448;2023-11-19T00:57:00;100997.88;;;2.60;100.00
29433;BME280;16405;53.964;13.448;2023-11-19T00:59:35;100987.47;;;2.59;100.00
29433;BME280;16405;53.964;13.448;2023-11-19T01:02:02;100990.88;;;2.65;100.00
29433;BME280;16405;53.964;13.448;2023-11-19T01:04:39;100985.72;;;2.61;100.00
29433;BME280;16405;53.964;13.448;2023-11-19T01:07:05;100968.41;;;2.60;100.00
29433;BME280;16405;53.964;13.448;2023-11-19T01:09:32;100968.44;;;2.57;100.00
29433;BME280;16405;53.964;13.448;2023-11-19T01:12:10;100966.78;;;2.48;100.00
29433;BME280;16405;53.964;13.448;2023-11-19T01:14:36;100961.53;;;2.54;100.00
29433;BME280;16405;53.964;13.448;2023-11-19T01:17:09;100951.06;;;2.59;100.00
29433;BME280;16405;53.964;13.448;2023-11-19T01:19:41;100951.13;;;2.54;100.00
29433;BME280;16405;53.964;13.448;2023-11-19T01:22:19;100958.03;;;2.58;100.00
29433;BME280;16405;53.964;13.448;2023-11-19T01:24:45;100938.97;;;2.58;100.00
29433;BME280;16405;53.964;13.448;2023-11-19T01:27:17;100939.81;;;2.60;100.00
29433;BME280;16405;53.964;13.448;2023-11-19T01:29:46;100920.78;;;2.58;100.00
29433;BME280;16405;53.964;13.448;2023-11-19T01:32:37;100929.38;;;2.64;100.00
29433;BME280;16405;53.964;13.448;2023-11-19T01:35:05;100922.47;;;2.60;100.00
29433;BME280;16405;53.964;13.448;2023-11-19T01:37:32;100930.28;;;2.60;100.00
29433;BME280;16405;53.964;13.448;2023-11-19T01:40:07;100925.94;;;2.61;100.00
29433;BME280;16405;53.964;13.448;2023-11-19T01:42:59;100917.22;;;2.66;100.00
29433;BME280;16405;53.964;13.448;2023-11-19T01:45:30;100910.31;;;2.64;100.00
29433;BME280;16405;53.964;13.448;2023-11-19T01:47:57;100901.63;;;2.63;100.00
29433;BME280;16405;53.964;13.448;2023-11-19T01:50:47;100890.38;;;2.64;100.00
29433;BME280;16405;53.964;13.448;2023-11-19T01:53:13;100876.44;;;2.70;100.00
29433;BME280;16405;53.964;13.448;2023-11-19T01:55:49;100866.00;;;2.72;100.00
29433;BME280;16405;53.964;13.448;2023-11-19T01:58:15;100860.78;;;2.75;100.00
29433;BME280;16405;53.964;13.448;2023-11-19T02:00:54;100847.72;;;2.78;100.00
29433;BME280;16405;53.964;13.448;2023-11-19T02:03:20;100826.06;;;2.79;100.00
29433;BME280;16405;53.964;13.448;2023-11-19T02:05:48;100824.25;;;2.84;100.00
29433;BME280;16405;53.964;13.448;2023-11-19T02:11:07;100812.09;;;2.86;100.00
29433;BME280;16405;53.964;13.448;2023-11-19T02:13:42;100802.53;;;2.86;100.00
29433;BME280;16405;53.964;13.448;2023-11-19T02:16:10;100793.03;;;2.84;100.00
29433;BME280;16405;53.964;13.448;2023-11-19T02:18:36;100789.47;;;2.93;100.00
29433;BME280;16405;53.964;13.448;2023-11-19T02:21:08;100785.94;;;2.95;100.00
29433;BME280;16405;53.964;13.448;2023-11-19T02:23:39;100769.56;;;2.88;100.00
29433;BME280;16405;53.964;13.448;2023-11-19T02:26:21;100762.69;;;2.86;100.00
29433;BME280;16405;53.964;13.448;2023-11-19T02:28:58;100747.16;;;2.81;100.00
29433;BME280;16405;53.964;13.448;2023-11-19T02:31:24;100743.63;;;2.84;100.00
29433;BME280;16405;53.964;13.448;2023-11-19T02:34:02;100755.69;;;2.90;100.00
29433;BME280;16405;53.964;13.448;2023-11-19T02:36:36;100751.44;;;2.84;100.00
29433;BME280;16405;53.964;13.448;2023-11-19T02:39:05;100756.50;;;2.93;100.00
29433;BME280;16405;53.964;13.448;2023-11-19T02:41:47;100745.22;;;2.94;100.00
29433;BME280;16405;53.964;13.448;2023-11-19T02:44:22;100739.97;;;2.96;100.00
29433;BME280;16405;53.964;13.448;2023-11-19T02:47:01;100727.03;;;2.93;100.00
29433;BME280;16405;53.964;13.448;2023-11-19T02:49:28;100715.72;;;2.94;100.00
29433;BME280;16405;53.964;13.448;2023-11-19T02:51:54;100719.22;;;2.93;100.00
29433;BME280;16405;53.964;13.448;2023-11-19T02:54:31;100714.97;;;2.88;100.00
29433;BME280;16405;53.964;13.448;2023-11-19T02:57:01;100703.78;;;2.82;100.00
29433;BME280;16405;53.964;13.448;2023-11-19T02:59:31;100697.69;;;2.83;100.00
29433;BME280;16405;53.964;13.448;2023-11-19T03:02:27;100679.47;;;2.86;100.00
29433;BME280;16405;53.964;13.448;2023-11-19T03:04:59;100672.50;;;2.88;100.00
29433;BME280;16405;53.964;13.448;2023-11-19T03:07:32;100664.63;;;2.91;100.00
29433;BME280;16405;53.964;13.448;2023-11-19T03:09:58;100660.34;;;2.87;100.00
29433;BME280;16405;53.964;13.448;2023-11-19T03:12:24;100657.81;;;2.85;100.00
29433;BME280;16405;53.964;13.448;2023-11-19T03:14:51;100652.63;;;2.84;100.00
29433;BME280;16405;53.964;13.448;2023-11-19T03:17:17;100643.16;;;2.78;100.00
29433;BME280;16405;53.964;13.448;2023-11-19T03:19:52;100632.81;;;2.75;100.00
29433;BME280;16405;53.964;13.448;2023-11-19T03:22:18;100626.84;;;2.70;100.00
29433;BME280;16405;53.964;13.448;2023-11-19T03:24:43;100625.09;;;2.71;100.00
29433;BME280;16405;53.964;13.448;2023-11-19T03:27:09;100612.03;;;2.74;100.00
29433;BME280;16405;53.964;13.448;2023-11-19T03:29:58;100608.66;;;2.70;100.00
29433;BME280;16405;53.964;13.448;2023-11-19T03:32:24;100596.56;;;2.66;100.00
29433;BME280;16405;53.964;13.448;2023-11-19T03:34:51;100595.75;;;2.64;100.00
29433;BME280;16405;53.964;13.448;2023-11-19T03:37:17;100575.84;;;2.61;100.00
29433;BME280;16405;53.964;13.448;2023-11-19T03:39:50;100561.94;;;2.64;100.00
29433;BME280;16405;53.964;13.448;2023-11-19T03:42:19;100549.03;;;2.59;100.00
29433;BME280;16405;53.964;13.448;2023-11-19T03:44:58;100542.09;;;2.57;100.00
29433;BME280;16405;53.964;13.448;2023-11-19T03:47:24;100543.91;;;2.53;100.00
29433;BME280;16405;53.964;13.448;2023-11-19T03:49:56;100531.00;;;2.49;100.00
29433;BME280;16405;53.964;13.448;2023-11-19T03:52:22;100527.44;;;2.53;100.00
29433;BME280;16405;53.964;13.448;2023-11-19T03:55:02;100510.88;;;2.61;100.00
29433;BME280;16405;53.964;13.448;2023-11-19T03:57:30;100506.56;;;2.59;100.00
29433;BME280;16405;53.964;13.448;2023-11-19T03:59:56;100499.84;;;2.47;100.00
29433;BME280;16405;53.964;13.448;2023-11-19T04:02:29;100496.31;;;2.51;100.00
29433;BME280;16405;53.964;13.448;2023-11-19T04:04:58;100494.44;;;2.59;100.00
29433;BME280;16405;53.964;13.448;2023-11-19T04:07:24;100489.28;;;2.55;100.00
29433;BME280;16405;53.964;13.448;2023-11-19T04:10:00;100492.69;;;2.60;100.00
29433;BME280;16405;53.964;13.448;2023-11-19T04:12:28;100489.28;;;2.56;100.00
29433;BME280;16405;53.964;13.448;2023-11-19T04:15:01;100474.56;;;2.55;100.00
29433;BME280;16405;53.964;13.448;2023-11-19T04:17:27;100469.47;;;2.51;100.00
29433;BME280;16405;53.964;13.448;2023-11-19T04:19:53;100459.84;;;2.54;100.00
29433;BME280;16405;53.964;13.448;2023-11-19T04:22:21;100465.03;;;2.56;100.00
29433;BME280;16405;53.964;13.448;2023-11-19T04:24:56;100465.06;;;2.53;100.00
29433;BME280;16405;53.964;13.448;2023-11-19T04:27:22;100458.97;;;2.55;100.00
29433;BME280;16405;53.964;13.448;2023-11-19T04:29:48;100453.81;;;2.52;100.00
29433;BME280;16405;53.964;13.448;2023-11-19T04:32:19;100454.66;;;2.54;100.00
29433;BME280;16405;53.964;13.448;2023-11-19T04:34:52;100433.94;;;2.50;100.00
29433;BME280;16405;53.964;13.448;2023-11-19T04:37:26;100433.97;;;2.48;100.00
29433;BME280;16405;53.964;13.448;2023-11-19T04:39:54;100428.75;;;2.48;100.00
29433;BME280;16405;53.964;13.448;2023-11-19T04:42:28;100425.41;;;2.43;100.00
29433;BME280;16405;53.964;13.448;2023-11-19T04:44:55;100429.66;;;2.47;100.00
29433;BME280;16405;53.964;13.448;2023-11-19T04:47:23;100401.16;;;2.42;100.00
29433;BME280;16405;53.964;13.448;2023-11-19T04:49:58;100400.34;;;2.39;100.00
29433;BME280;16405;53.964;13.448;2023-11-19T04:52:24;100386.34;;;2.47;100.00
29433;BME280;16405;53.964;13.448;2023-11-19T04:54:50;100384.63;;;2.46;100.00
29433;BME280;16405;53.964;13.448;2023-11-19T04:57:17;100372.59;;;2.42;100.00
29433;BME280;16405;53.964;13.448;2023-11-19T04:59:49;100368.09;;;2.51;100.00
29433;BME280;16405;53.964;13.448;2023-11-19T05:02:15;100367.28;;;2.47;100.00
29433;BME280;16405;53.964;13.448;2023-11-19T05:04:44;100358.66;;;2.45;100.00
29433;BME280;16405;53.964;13.448;2023-11-19T05:07:17;100352.63;;;2.44;100.00
29433;BME280;16405;53.964;13.448;2023-11-19T05:09:43;100351.81;;;2.41;100.00
29433;BME280;16405;53.964;13.448;2023-11-19T05:12:08;100335.34;;;2.42;100.00
29433;BME280;16405;53.964;13.448;2023-11-19T05:14:43;100335.34;;;2.42;100.00
29433;BME280;16405;53.964;13.448;2023-11-19T05:17:17;100327.56;;;2.42;100.00
29433;BME280;16405;53.964;13.448;2023-11-19T05:19:50;100341.31;;;2.47;100.00
29433;BME280;16405;53.964;13.448;2023-11-19T05:22:16;100332.59;;;2.48;100.00
29433;BME280;16405;53.964;13.448;2023-11-19T05:24:42;100339.66;;;2.43;100.00
29433;BME280;16405;53.964;13.448;2023-11-19T05:27:08;100333.56;;;2.44;100.00
29433;BME280;16405;53.964;13.448;2023-11-19T05:29:40;100319.78;;;2.40;100.00
29433;BME280;16405;53.964;13.448;2023-11-19T05:32:10;100307.66;;;2.39;100.00
29433;BME280;16405;53.964;13.448;2023-11-19T05:34:36;100291.97;;;2.44;100.00
29433;BME280;16405;53.964;13.448;2023-11-19T05:37:14;100305.09;;;2.38;100.00
29433;BME280;16405;53.964;13.448;2023-11-19T05:39:40;100308.47;;;2.43;100.00
29433;BME280;16405;53.964;13.448;2023-11-19T05:42:27;100304.91;;;2.47;100.00
29433;BME280;16405;53.964;13.448;2023-11-19T05:44:56;100309.31;;;2.43;100.00
29433;BME280;16405;53.964;13.448;2023-11-19T05:47:23;100307.63;;;2.41;100.00
29433;BME280;16405;53.964;13.448;2023-11-19T05:49:49;100296.28;;;2.45;100.00
29433;BME280;16405;53.964;13.448;2023-11-19T05:52:24;100287.59;;;2.46;100.00
29433;BME280;16405;53.964;13.448;2023-11-19T05:54:50;100291.03;;;2.48;100.00
29433;BME280;16405;53.964;13.448;2023-11-19T05:57:26;100284.16;;;2.45;100.00
29433;BME280;16405;53.964;13.448;2023-11-19T05:59:54;100278.22;;;2.39;100.00
29433;BME280;16405;53.964;13.448;2023-11-19T06:02:21;100263.53;;;2.38;100.00
29433;BME280;16405;53.964;13.448;2023-11-19T06:04:56;100253.91;;;2.43;100.00
29433;BME280;16405;53.964;13.448;2023-11-19T06:07:24;100259.09;;;2.41;100.00
29433;BME280;16405;53.964;13.448;2023-11-19T06:10:16;100241.75;;;2.43;100.00
29433;BME280;16405;53.964;13.448;2023-11-19T06:12:45;100221.09;;;2.37;100.00
29433;BME280;16405;53.964;13.448;2023-11-19T06:15:23;100210.78;;;2.34;100.00
29433;BME280;16405;53.964;13.448;2023-11-19T06:17:49;100200.41;;;2.33;100.00
29433;BME280;16405;53.964;13.448;2023-11-19T06:20:43;100192.59;;;2.33;100.00
29433;BME280;16405;53.964;13.448;2023-11-19T06:23:07;100179.63;;;2.33;100.00
29433;BME280;16405;53.964;13.448;2023-11-19T06:25:33;100184.09;;;2.26;100.00
29433;BME280;16405;53.964;13.448;2023-11-19T06:28:06;100197.03;;;2.29;100.00
29433;BME280;16405;53.964;13.448;2023-11-19T06:30:35;100196.88;;;2.35;100.00
29433;BME280;16405;53.964;13.448;2023-11-19T06:33:04;100207.31;;;2.34;100.00
29433;BME280;16405;53.964;13.448;2023-11-19T06:35:40;100199.56;;;2.31;100.00
29433;BME280;16405;53.964;13.448;2023-11-19T06:38:15;100206.41;;;2.35;100.00
29433;BME280;16405;53.964;13.448;2023-11-19T06:40:45;100213.22;;;2.42;100.00
29433;BME280;16405;53.964;13.448;2023-11-19T06:43:23;100203.78;;;2.38;100.00
29433;BME280;16405;53.964;13.448;2023-11-19T06:45:48;100214.19;;;2.36;100.00
29433;BME280;16405;53.964;13.448;2023-11-19T06:48:23;100215.88;;;2.37;100.00
29433;BME280;16405;53.964;13.448;2023-11-19T06:50:49;100221.06;;;2.39;100.00
29433;BME280;16405;53.964;13.448;2023-11-19T06:53:15;100209.78;;;2.40;100.00
29433;BME280;16405;53.964;13.448;2023-11-19T06:55:48;100208.81;;;2.44;100.00
29433;BME280;16405;53.964;13.448;2023-11-19T06:58:17;100195.81;;;2.44;100.00
29433;BME280;16405;53.964;13.448;2023-11-19T07:00:43;100194.16;;;2.41;100.00
29433;BME280;16405;53.964;13.448;2023-11-19T07:03:18;100194.13;;;2.43;100.00
29433;BME280;16405;53.964;13.448;2023-11-19T07:05:48;100192.47;;;2.39;100.00
29433;BME280;16405;53.964;13.448;2023-11-19T07:08:20;100162.19;;;2.38;100.00
29433;BME280;16405;53.964;13.448;2023-11-19T07:10:46;100143.25;;;2.33;100.00
29433;BME280;16405;53.964;13.448;2023-11-19T07:13:12;100151.94;;;2.32;100.00
29433;BME280;16405;53.964;13.448;2023-11-19T07:15:38;100164.94;;;2.32;100.00
29433;BME280;16405;53.964;13.448;2023-11-19T07:18:14;100172.50;;;2.41;100.00
29433;BME280;16405;53.964;13.448;2023-11-19T07:20:40;100164.69;;;2.42;100.00
29433;BME280;16405;53.964;13.448;2023-11-19T07:23:06;100158.59;;;2.43;100.00
29433;BME280;16405;53.964;13.448;2023-11-19T07:25:32;100136.06;;;2.44;100.00
29433;BME280;16405;53.964;13.448;2023-11-19T07:28:07;100102.22;;;2.47;100.00
29433;BME280;16405;53.964;13.448;2023-11-19T07:30:35;100090.31;;;2.37;100.00
29433;BME280;16405;53.964;13.448;2023-11-19T07:33:04;100095.28;;;2.47;100.00
29433;BME280;16405;53.964;13.448;2023-11-19T07:35:36;100106.56;;;2.46;100.00
29433;BME280;16405;53.964;13.448;2023-11-19T07:38:04;100125.59;;;2.49;100.00
29433;BME280;16405;53.964;13.448;2023-11-19T07:40:39;100142.03;;;2.49;100.00
29433;BME280;16405;53.964;13.448;2023-11-19T07:43:05;100166.19;;;2.53;100.00
29433;BME280;16405;53.964;13.448;2023-11-19T07:45:40;100162.72;;;2.52;100.00
29433;BME280;16405;53.964;13.448;2023-11-19T07:48:09;100174.97;;;2.47;100.00
29433;BME280;16405;53.964;13.448;2023-11-19T07:50:36;100149.81;;;2.49;100.00
29433;BME280;16405;53.964;13.448;2023-11-19T07:53:07;100129.84;;;2.51;100.00
29433;BME280;16405;53.964;13.448;2023-11-19T07:55:37;100142.84;;;2.51;100.00
29433;BME280;16405;53.964;13.448;2023-11-19T07:58:05;100148.84;;;2.53;100.00
29433;BME280;16405;53.964;13.448;2023-11-19T08:00:57;100148.91;;;2.50;100.00
29433;BME280;16405;53.964;13.448;2023-11-19T08:03:34;100151.47;;;2.53;100.00
29433;BME280;16405;53.964;13.448;2023-11-19T08:06:05;100147.09;;;2.55;100.00
29433;BME280;16405;53.964;13.448;2023-11-19T08:08:40;100143.56;;;2.58;100.00
29433;BME280;16405;53.964;13.448;2023-11-19T08:11:09;100145.25;;;2.59;100.00
29433;BME280;16405;53.964;13.448;2023-11-19T08:13:46;100129.72;;;2.57;100.00
29433;BME280;16405;53.964;13.448;2023-11-19T08:16:13;100141.78;;;2.60;100.00
29433;BME280;16405;53.964;13.448;2023-11-19T08:19:06;100151.16;;;2.65;100.00
29433;BME280;16405;53.964;13.448;2023-11-19T08:21:48;100133.88;;;2.64;100.00
29433;BME280;16405;53.964;13.448;2023-11-19T08:24:26;100136.56;;;2.61;100.00
29433;BME280;16405;53.964;13.448;2023-11-19T08:27:04;100141.69;;;2.63;100.00
29433;BME280;16405;53.964;13.448;2023-11-19T08:29:30;100140.81;;;2.64;100.00
29433;BME280;16405;53.964;13.448;2023-11-19T08:32:05;100138.09;;;2.69;100.00
29433;BME280;16405;53.964;13.448;2023-11-19T08:34:32;100125.78;;;2.77;100.00
29433;BME280;16405;53.964;13.448;2023-11-19T08:37:09;100122.25;;;2.79;100.00
29433;BME280;16405;53.964;13.448;2023-11-19T08:39:35;100126.63;;;2.77;100.00
29433;BME280;16405;53.964;13.448;2023-11-19T08:42:15;100124.06;;;2.76;100.00
29433;BME280;16405;53.964;13.448;2023-11-19T08:44:55;100105.97;;;2.71;100.00
29433;BME280;16405;53.964;13.448;2023-11-19T08:47:50;100096.41;;;2.72;100.00
29433;BME280;16405;53.964;13.448;2023-11-19T08:50:28;100100.78;;;2.71;100.00
29433;BME280;16405;53.964;13.448;2023-11-19T08:52:57;100099.91;;;2.72;100.00
29433;BME280;16405;53.964;13.448;2023-11-19T08:55:25;100074.75;;;2.73;100.00
29433;BME280;16405;53.964;13.448;2023-11-19T08:58:29;100055.47;;;2.81;100.00
29433;BME280;16405;53.964;13.448;2023-11-19T09:00:57;100058.06;;;2.81;100.00
29433;BME280;16405;53.964;13.448;2023-11-19T09:03:23;100050.16;;;2.84;100.00
29433;BME280;16405;53.964;13.448;2023-11-19T09:06:33;100043.16;;;2.88;100.00
29433;BME280;16405;53.964;13.448;2023-11-19T09:08:59;100034.38;;;2.92;100.00
29433;BME280;16405;53.964;13.448;2023-11-19T09:11:41;100027.41;;;2.94;100.00
29433;BME280;16405;53.964;13.448;2023-11-19T09:14:19;100030.00;;;2.94;100.00
29433;BME280;16405;53.964;13.448;2023-11-19T09:17:01;100039.44;;;2.98;100.00
29433;BME280;16405;53.964;13.448;2023-11-19T09:19:41;100037.88;;;2.91;100.00
29433;BME280;16405;53.964;13.448;2023-11-19T09:22:20;100036.84;;;2.98;100.00
29433;BME280;16405;53.964;13.448;2023-11-19T09:24:52;100033.28;;;3.01;100.00
29433;BME280;16405;53.964;13.448;2023-11-19T09:27:18;100024.81;;;2.93;100.00
29433;BME280;16405;53.964;13.448;2023-11-19T09:30:01;100022.19;;;2.94;100.00
29433;BME280;16405;53.964;13.448;2023-11-19T09:32:56;100024.88;;;2.91;100.00
29433;BME280;16405;53.964;13.448;2023-11-19T09:35:22;100017.16;;;2.88;100.00
29433;BME280;16405;53.964;13.448;2023-11-19T09:38:01;100017.00;;;2.94;100.00
29433;BME280;16405;53.964;13.448;2023-11-19T09:43:19;100005.03;;;2.87;100.00
29433;BME280;16405;53.964;13.448;2023-11-19T09:45:49;100000.63;;;2.91;100.00
29433;BME280;16405;53.964;13.448;2023-11-19T09:48:25;99993.50;;;2.97;100.00
29433;BME280;16405;53.964;13.448;2023-11-19T09:51:08;99985.84;;;2.91;100.00
29433;BME280;16405;53.964;13.448;2023-11-19T09:53:43;99982.28;;;2.95;100.00
29433;BME280;16405;53.964;13.448;2023-11-19T09:56:11;99978.94;;;2.92;100.00
29433;BME280;16405;53.964;13.448;2023-11-19T09:58:47;99978.75;;;2.98;100.00
29433;BME280;16405;53.964;13.448;2023-11-19T10:01:13;99976.88;;;3.03;100.00
29433;BME280;16405;53.964;13.448;2023-11-19T10:03:41;99967.34;;;3.02;100.00
29433;BME280;16405;53.964;13.448;2023-11-19T10:06:31;99967.28;;;3.05;100.00
29433;BME280;16405;53.964;13.448;2023-11-19T10:08:57;99945.59;;;3.04;100.00
29433;BME280;16405;53.964;13.448;2023-11-19T10:11:49;99943.09;;;3.01;100.00
29433;BME280;16405;53.964;13.448;2023-11-19T10:14:20;99947.59;;;2.96;100.00
29433;BME280;16405;53.964;13.448;2023-11-19T10:17:11;99933.47;;;3.05;100.00
29433;BME280;16405;53.964;13.448;2023-11-19T10:22:29;99930.63;;;3.13;100.00
29433;BME280;16405;53.964;13.448;2023-11-19T10:25:00;99940.09;;;3.15;100.00
29433;BME280;16405;53.964;13.448;2023-11-19T10:27:38;99933.88;;;3.21;100.00
29433;BME280;16405;53.964;13.448;2023-11-19T10:30:48;99949.19;;;3.32;100.00
29433;BME280;16405;53.964;13.448;2023-11-19T10:36:39;99933.53;;;3.33;100.00
29433;BME280;16405;53.964;13.448;2023-11-19T10:39:19;99912.91;;;3.27;100.00
29433;BME280;16405;53.964;13.448;2023-11-19T10:41:47;99901.72;;;3.23;100.00
29433;BME280;16405;53.964;13.448;2023-11-19T10:44:13;99906.84;;;3.26;100.00
29433;BME280;16405;53.964;13.448;2023-11-19T10:47:08;99909.28;;;3.33;100.00
29433;BME280;16405;53.964;13.448;2023-11-19T10:49:50;99894.31;;;3.39;100.00
29433;BME280;16405;53.964;13.448;2023-11-19T10:52:36;99900.13;;;3.47;100.00
29433;BME280;16405;53.964;13.448;2023-11-19T10:55:31;99893.91;;;3.52;100.00
29433;BME280;16405;53.964;13.448;2023-11-19T11:01:09;99899.56;;;3.66;100.00
29433;BME280;16405;53.964;13.448;2023-11-19T11:03:51;99888.97;;;3.72;100.00
29433;BME280;16405;53.964;13.448;2023-11-19T11:06:29;99882.03;;;3.71;100.00
29433;BME280;16405;53.964;13.448;2023-11-19T11:09:07;99882.75;;;3.76;100.00
29433;BME280;16405;53.964;13.448;2023-11-19T11:15:00;99887.63;;;3.87;100.00
29433;BME280;16405;53.964;13.448;2023-11-19T11:17:33;99884.06;;;3.89;100.00
29433;BME280;16405;53.964;13.448;2023-11-19T11:20:09;99876.06;;;3.96;100.00
29433;BME280;16405;53.964;13.448;2023-11-19T11:29:27;99864.47;;;4.04;100.00
29433;BME280;16405;53.964;13.448;2023-11-19T11:32:45;99862.56;;;4.09;100.00
29433;BME280;16405;53.964;13.448;2023-11-19T11:35:42;99865.84;;;4.15;100.00
29433;BME280;16405;53.964;13.448;2023-11-19T11:38:21;99864.78;;;4.20;100.00
29433;BME280;16405;53.964;13.448;2023-11-19T11:41:31;99863.66;;;4.27;100.00
29433;BME280;16405;53.964;13.448;2023-11-19T11:44:34;99862.75;;;4.30;100.00
29433;BME280;16405;53.964;13.448;2023-11-19T11:47:08;99859.97;;;4.35;100.00
29433;BME280;16405;53.964;13.448;2023-11-19T11:49:43;99862.28;;;4.42;100.00
29433;BME280;16405;53.964;13.448;2023-11-19T11:52:09;99862.13;;;4.47;100.00
29433;BME280;16405;53.964;13.448;2023-11-19T11:54:45;99854.03;;;4.55;100.00
29433;BME280;16405;53.964;13.448;2023-11-19T11:57:13;99849.59;;;4.58;100.00
29433;BME280;16405;53.964;13.448;2023-11-19T11:59:50;99842.59;;;4.59;100.00
29433;BME280;16405;53.964;13.448;2023-11-19T12:02:30;99839.03;;;4.61;100.00
29433;BME280;16405;53.964;13.448;2023-11-19T12:04:57;99838.91;;;4.64;100.00
29433;BME280;16405;53.964;13.448;2023-11-19T12:07:33;99833.53;;;4.69;100.00
29433;BME280;16405;53.964;13.448;2023-11-19T12:10:29;99834.97;;;4.78;100.00
29433;BME280;16405;53.964;13.448;2023-11-19T12:13:10;99834.63;;;4.87;100.00
29433;BME280;16405;53.964;13.448;2023-11-19T12:18:47;99829.00;;;4.98;100.00
29433;BME280;16405;53.964;13.448;2023-11-19T12:21:58;99823.56;;;5.04;100.00
29433;BME280;16405;53.964;13.448;2023-11-19T12:24:28;99826.88;;;5.07;100.00
29433;BME280;16405;53.964;13.448;2023-11-19T12:27:03;99827.75;;;5.08;100.00
29433;BME280;16405;53.964;13.448;2023-11-19T12:29:42;99808.69;;;5.06;100.00
29433;BME280;16405;53.964;13.448;2023-11-19T12:32:45;99818.03;;;5.11;100.00
29433;BME280;16405;53.964;13.448;2023-11-19T12:38:34;99820.72;;;5.32;100.00
29433;BME280;16405;53.964;13.448;2023-11-19T12:41:14;99811.66;;;5.41;100.00
29433;BME280;16405;53.964;13.448;2023-11-19T12:44:20;99824.16;;;5.54;100.00
29433;BME280;16405;53.964;13.448;2023-11-19T12:47:01;99814.13;;;5.66;100.00
29433;BME280;16405;53.964;13.448;2023-11-19T12:49:42;99808.59;;;5.73;100.00
29433;BME280;16405;53.964;13.448;2023-11-19T12:52:19;99813.25;;;5.87;100.00
29433;BME280;16405;53.964;13.448;2023-11-19T12:54:48;99810.09;;;6.01;100.00
29433;BME280;16405;53.964;13.448;2023-11-19T12:57:17;99809.63;;;6.12;100.00
29433;BME280;16405;53.964;13.448;2023-11-19T13:00:25;99804.78;;;6.23;100.00
29433;BME280;16405;53.964;13.448;2023-11-19T13:03:03;99805.25;;;6.33;100.00
29433;BME280;16405;53.964;13.448;2023-11-19T13:05:33;99806.53;;;6.43;100.00
29433;BME280;16405;53.964;13.448;2023-11-19T13:11:05;99799.44;;;6.66;100.00
29433;BME280;16405;53.964;13.448;2023-11-19T13:17:01;99796.53;;;6.91;100.00
29433;BME280;16405;53.964;13.448;2023-11-19T13:19:47;99796.75;;;7.05;100.00
29433;BME280;16405;53.964;13.448;2023-11-19T13:22:19;99802.03;;;7.23;100.00
29433;BME280;16405;53.964;13.448;2023-11-19T13:24:45;99792.81;;;7.33;100.00
29433;BME280;16405;53.964;13.448;2023-11-19T13:27:21;99785.44;;;7.41;100.00
29433;BME280;16405;53.964;13.448;2023-11-19T13:29:58;99792.69;;;7.53;100.00
29433;BME280;16405;53.964;13.448;2023-11-19T13:32:28;99793.94;;;7.64;100.00
29433;BME280;16405;53.964;13.448;2023-11-19T13:35:05;99802.13;;;7.75;100.00
29433;BME280;16405;53.964;13.448;2023-11-19T13:37:43;99800.75;;;7.85;100.00
29433;BME280;16405;53.964;13.448;2023-11-19T13:40:22;99801.91;;;7.97;100.00
29433;BME280;16405;53.964;13.448;2023-11-19T13:43:02;99803.06;;;8.09;100.00
29433;BME280;16405;53.964;13.448;2023-11-19T13:45:28;99799.56;;;8.26;100.00
29433;BME280;16405;53.964;13.448;2023-11-19T13:48:06;99811.06;;;8.40;100.00
29433;BME280;16405;53.964;13.448;2023-11-19T13:50:37;99810.25;;;8.56;100.00
29433;BME280;16405;53.964;13.448;2023-11-19T13:53:17;99812.31;;;8.67;100.00
29433;BME280;16405;53.964;13.448;2023-11-19T13:56:12;99811.41;;;8.83;100.00
29433;BME280;16405;53.964;13.448;2023-11-19T13:59:22;99804.06;;;8.90;100.00
29433;BME280;16405;53.964;13.448;2023-11-19T14:01:48;99813.97;;;9.01;100.00
29433;BME280;16405;53.964;13.448;2023-11-19T14:04:23;99812.69;;;9.08;100.00